• Join FlightAware (Why Join?)
  • Login
  • US Flag 
10:36PM EDT


 

Airport Tracker/Info


-or-


 

Live Flight TrackerFlight Track Log ✈ EGF3479 ✈ 11-Dec-2013 ✈ KDCA - KRDU

Flight Track Log - Related Links

Times and Time Zones

All times are in EST time to prevent confusion due to time zone crossing. See the EGF3479 flight status page for this flight to view local times or setup timezone preferences in your user account.

Time Position Orientation Groundspeed Altitude Reporting Facility
EST Latitude Longitude Course Direction KTS MPH feet Rate Location/Type
04:43PM 38.8167 -77.0333 218° Southwest 158 182 1,100  Level Potomac TRACON
04:44PM 38.7667 -77.0333 180° South 228 262 2,900 1,860 Climbing Potomac TRACON
04:45PM 38.7333 -77.1000 237° Southwest 238 274 4,900 2,400 Climbing Potomac TRACON
04:46PM 38.6114 -77.1851 218° Southwest  Level Estimated
04:46PM 38.7000 -77.1667 237° Southwest 233 268 7,700  Level Potomac TRACON
04:47PM 38.5312 -77.2340 225° Southwest  Level Estimated
04:47PM 38.6500 -77.2167 218° Southwest 217 250 10,500  Level Potomac TRACON
04:48PM 38.4923 -77.3361 244° Southwest  Level FlightAware Approximate
04:48PM 38.6000 -77.2833 226° Southwest 247 284 12,200  Level Potomac TRACON
04:49PM 38.4113 -77.3828 218° Southwest  Level Estimated
04:50PM 38.5481 -77.3622 230° Southwest 268 308 14,000  Level Washington Center
04:51PM 38.4947 -77.4328 226° Southwest 273 314 15,900 1,860 Climbing Washington Center
04:52PM 38.4458 -77.5056 229° Southwest 273 314 17,700 1,620 Climbing Washington Center
04:53PM 38.3903 -77.5758 225° Southwest 273 314 19,200 1,140 Climbing Washington Center
04:54PM 38.3228 -77.6347 214° Southwest 286 329 20,000 360 Climbing Washington Center
04:55PM 38.2508 -77.6964 214° Southwest 300 345 20,000  Level Washington Center
04:56PM 38.1767 -77.7603 214° Southwest 312 359 20,000  Level Washington Center
04:57PM 38.1044 -77.8217 214° Southwest 317 365 20,000  Level Washington Center
04:58PM 38.0303 -77.8853 214° Southwest 317 365 20,000  Level Washington Center
04:59PM 37.9583 -77.9436 213° Southwest 317 365 20,000  Level Washington Center
05:00PM 37.8842 -78.0044 213° Southwest 317 365 20,000  Level Washington Center
05:01PM 37.8142 -78.0653 214° Southwest 317 365 20,000  Level Washington Center
05:02PM 37.7356 -78.1336 215° Southwest 312 359 20,000  Level Washington Center
05:03PM 37.6675 -78.1917 214° Southwest 312 359 20,000  Level Washington Center
05:04PM 37.6036 -78.2472 215° Southwest 312 359 20,000  Level Washington Center
05:05PM 37.5314 -78.3075 214° Southwest 312 359 20,000  Level Washington Center
05:06PM 37.4592 -78.3703 215° Southwest 312 359 20,000  Level Washington Center
05:07PM 37.3869 -78.4278 212° Southwest 312 359 20,000  Level Washington Center
05:08PM 37.3144 -78.4878 213° Southwest 312 359 20,000  Level Washington Center
05:09PM 37.2356 -78.5553 214° Southwest 312 359 20,000 -120 Level Washington Center
05:10PM 37.1589 -78.6175 213° Southwest 312 359 19,800 -660 Descending Washington Center
05:11PM 37.0844 -78.6769 213° Southwest 317 365 18,800 -1,020 Descending Washington Center
05:12PM 37.0161 -78.7367 215° Southwest 312 359 17,900 -720 Descending Washington Center
05:13PM 36.9339 -78.7697 198° South 307 353 17,400 -660 Descending Washington Center
05:14PM 36.8583 -78.7900 192° South 312 359 16,600 -960 Descending Washington Center
05:15PM 36.7719 -78.8175 194° South 317 365 15,500 -1,200 Descending Washington Center
05:16PM 36.6878 -78.8450 195° South 317 365 14,300 -1,380 Descending Washington Center
05:17PM 36.5931 -78.8775 195° South 322 371 12,900 -1,320 Descending Washington Center
05:17PM 36.5908 -78.8772 174° South 319 367 13,000 -1,260 Climbing Washington Center
05:18PM 36.5150 -78.9050 196° South 312 359 11,600 -1,260 Descending Washington Center
05:19PM 36.4436 -78.9228 191° South 287 330 10,600 -960 Descending Washington Center
05:19PM 36.4331 -78.9300 209° Southwest 265 305 10,600 -900 Level Washington Center
05:20PM 36.3750 -78.9147 168° South 270 311 9,700 -1,200 Descending Washington Center
05:20PM 36.3586 -78.9061 157° South 293 337 9,300 -1,500 Descending Washington Center
05:21PM 36.3056 -78.8550 142° Southeast 270 311 8,200 -1,320 Descending Washington Center
05:21PM 36.2994 -78.8522 160° South 283 326 8,100 -240 Descending Washington Center
05:22PM 36.2486 -78.8036 142° Southeast 253 291 8,000 -660 Descending Washington Center
05:23PM 36.1997 -78.7606 145° Southeast 253 291 6,900 -1,440 Descending Washington Center
05:24PM 36.1281 -78.7089 150° Southeast 257 296 5,000 -1,800 Descending Washington Center
05:25PM 36.0681 -78.6883 165° South 252 290 3,400 -1,800 Descending Washington Center
05:25PM 36.0514 -78.6853 172° South 241 277 3,000 -1,320 Descending Washington Center
05:26PM 36.0075 -78.6886 184° South 234 269 2,100 -1,140 Descending Washington Center
05:26PM 36.0033 -78.6911 206° Southwest 214 246 2,100 -120 Level Washington Center
05:27PM 35.9531 -78.7019 190° South 188 216 2,000 -480 Descending Washington Center
05:28PM 35.9206 -78.7467 228° Southwest 141 162 1,200 -720 Descending Washington Center
05:29PM 35.8989 -78.7717 223° Southwest 117 135 700 -600 Descending Washington Center
05:31PM 35.8776 -78.7875 90° East  Level Estimated
05:38PM 35.8776 -78.7875 90° East  Level Estimated
05:39PM 35.8776 -78.7875 90° East  Level Estimated
05:40PM 35.8776 -78.7875 90° East  Level Estimated
05:41PM 35.8776 -78.7875 90° East  Level Estimated